Terminal Aerodrome Forecast
Issued by NWS Missoula, MT

Home | Current Version | Previous Version | Text Only | Print | Product List | Glossary On
Versions: 1 2 3 4 5 6 7 8 9 10 11 12 13 14 15
165
FTUS45 KMSO 272340
TAFGPI
TAF
KGPI 272340Z 2800/2824 14013KT P6SM VCSH FEW025 BKN045 OVC060
     FM280300 14006KT P6SM SCT040 BKN060
     FM281000 VRB03KT 6SM MIFG FEW004 FEW060
     FM281500 00000KT P6SM SKC=

USA.gov is the U.S. government's official web portal to all federal, state and local government web resources and services.